sensor_id;sensor_type;location;lat;lon;timestamp;temperature;humidity
11264;DHT22;5689;48.798;9.070;2022-07-29T00:00:25;20.10;99.90
11264;DHT22;5689;48.798;9.070;2022-07-29T00:02:53;20.00;99.90
11264;DHT22;5689;48.798;9.070;2022-07-29T00:05:21;20.10;99.90
11264;DHT22;5689;48.798;9.070;2022-07-29T00:07:49;20.00;99.90
11264;DHT22;5689;48.798;9.070;2022-07-29T00:10:17;20.00;99.90
11264;DHT22;5689;48.798;9.070;2022-07-29T00:12:47;19.90;99.90
11264;DHT22;5689;48.798;9.070;2022-07-29T00:15:15;19.80;99.90
11264;DHT22;5689;48.798;9.070;2022-07-29T00:17:43;19.90;99.90
11264;DHT22;5689;48.798;9.070;2022-07-29T00:20:11;19.90;99.90
11264;DHT22;5689;48.798;9.070;2022-07-29T00:22:39;19.90;99.90
11264;DHT22;5689;48.798;9.070;2022-07-29T00:25:08;19.90;99.90
11264;DHT22;5689;48.798;9.070;2022-07-29T00:27:36;19.90;99.90
11264;DHT22;5689;48.798;9.070;2022-07-29T00:30:06;19.90;99.90
11264;DHT22;5689;48.798;9.070;2022-07-29T00:32:35;19.90;99.90
11264;DHT22;5689;48.798;9.070;2022-07-29T00:35:03;19.80;99.90
11264;DHT22;5689;48.798;9.070;2022-07-29T00:37:49;19.80;99.90
11264;DHT22;5689;48.798;9.070;2022-07-29T00:40:17;19.80;99.90
11264;DHT22;5689;48.798;9.070;2022-07-29T00:42:47;19.90;99.90
11264;DHT22;5689;48.798;9.070;2022-07-29T00:45:16;19.90;99.90
11264;DHT22;5689;48.798;9.070;2022-07-29T00:47:45;19.90;99.90
11264;DHT22;5689;48.798;9.070;2022-07-29T00:50:13;19.90;99.90
11264;DHT22;5689;48.798;9.070;2022-07-29T00:52:42;19.80;99.90
11264;DHT22;5689;48.798;9.070;2022-07-29T00:55:11;19.80;99.90
11264;DHT22;5689;48.798;9.070;2022-07-29T00:57:41;19.80;99.90
11264;DHT22;5689;48.798;9.070;2022-07-29T01:00:14;19.90;99.90
11264;DHT22;5689;48.798;9.070;2022-07-29T01:02:44;19.80;99.90
11264;DHT22;5689;48.798;9.070;2022-07-29T01:05:15;19.80;99.90
11264;DHT22;5689;48.798;9.070;2022-07-29T01:07:45;19.80;99.90
11264;DHT22;5689;48.798;9.070;2022-07-29T01:10:14;19.80;99.90
11264;DHT22;5689;48.798;9.070;2022-07-29T01:12:45;19.80;99.90
11264;DHT22;5689;48.798;9.070;2022-07-29T01:15:14;19.70;99.90
11264;DHT22;5689;48.798;9.070;2022-07-29T01:17:48;19.60;99.90
11264;DHT22;5689;48.798;9.070;2022-07-29T01:20:22;19.70;99.90
11264;DHT22;5689;48.798;9.070;2022-07-29T01:23:17;19.60;99.90
11264;DHT22;5689;48.798;9.070;2022-07-29T01:26:21;19.50;99.90
11264;DHT22;5689;48.798;9.070;2022-07-29T01:29:07;19.50;99.90
11264;DHT22;5689;48.798;9.070;2022-07-29T01:31:43;19.60;99.90
11264;DHT22;5689;48.798;9.070;2022-07-29T01:34:21;19.60;99.90
11264;DHT22;5689;48.798;9.070;2022-07-29T01:36:57;19.60;99.90
11264;DHT22;5689;48.798;9.070;2022-07-29T01:39:32;19.60;99.90
11264;DHT22;5689;48.798;9.070;2022-07-29T01:42:07;19.50;99.90
11264;DHT22;5689;48.798;9.070;2022-07-29T01:44:45;19.30;99.90
11264;DHT22;5689;48.798;9.070;2022-07-29T01:47:17;19.10;99.90
11264;DHT22;5689;48.798;9.070;2022-07-29T01:49:51;19.10;99.90
11264;DHT22;5689;48.798;9.070;2022-07-29T01:52:23;19.10;99.90
11264;DHT22;5689;48.798;9.070;2022-07-29T01:54:55;19.10;99.90
11264;DHT22;5689;48.798;9.070;2022-07-29T01:57:26;19.10;99.90
11264;DHT22;5689;48.798;9.070;2022-07-29T01:59:58;19.10;99.90
11264;DHT22;5689;48.798;9.070;2022-07-29T02:02:37;19.20;99.90
11264;DHT22;5689;48.798;9.070;2022-07-29T02:05:08;19.20;99.90
11264;DHT22;5689;48.798;9.070;2022-07-29T02:07:39;19.20;99.90
11264;DHT22;5689;48.798;9.070;2022-07-29T02:10:09;19.20;99.90
11264;DHT22;5689;48.798;9.070;2022-07-29T02:12:39;19.20;99.90
11264;DHT22;5689;48.798;9.070;2022-07-29T02:15:10;19.40;99.90
11264;DHT22;5689;48.798;9.070;2022-07-29T02:17:42;19.30;99.90
11264;DHT22;5689;48.798;9.070;2022-07-29T02:20:11;19.30;99.90
11264;DHT22;5689;48.798;9.070;2022-07-29T02:22:41;19.30;99.90
11264;DHT22;5689;48.798;9.070;2022-07-29T02:25:10;19.30;99.90
11264;DHT22;5689;48.798;9.070;2022-07-29T02:27:40;19.40;99.90
11264;DHT22;5689;48.798;9.070;2022-07-29T02:30:12;19.40;99.90
11264;DHT22;5689;48.798;9.070;2022-07-29T02:32:41;19.40;99.90
11264;DHT22;5689;48.798;9.070;2022-07-29T02:35:10;19.50;99.90
11264;DHT22;5689;48.798;9.070;2022-07-29T02:37:41;19.50;99.90
11264;DHT22;5689;48.798;9.070;2022-07-29T02:40:11;19.50;99.90
11264;DHT22;5689;48.798;9.070;2022-07-29T02:42:42;19.50;99.90
11264;DHT22;5689;48.798;9.070;2022-07-29T02:45:12;19.40;99.90
11264;DHT22;5689;48.798;9.070;2022-07-29T02:47:43;19.40;99.90
11264;DHT22;5689;48.798;9.070;2022-07-29T02:50:16;19.30;99.90
11264;DHT22;5689;48.798;9.070;2022-07-29T02:52:48;19.30;99.90
11264;DHT22;5689;48.798;9.070;2022-07-29T02:55:24;19.40;99.90
11264;DHT22;5689;48.798;9.070;2022-07-29T02:57:58;19.30;99.90
11264;DHT22;5689;48.798;9.070;2022-07-29T03:00:31;19.30;99.90
11264;DHT22;5689;48.798;9.070;2022-07-29T03:03:01;19.30;99.90
11264;DHT22;5689;48.798;9.070;2022-07-29T03:05:31;19.40;99.90
11264;DHT22;5689;48.798;9.070;2022-07-29T03:08:03;19.50;99.90
11264;DHT22;5689;48.798;9.070;2022-07-29T03:10:32;19.40;99.90
11264;DHT22;5689;48.798;9.070;2022-07-29T03:13:01;19.30;99.90
11264;DHT22;5689;48.798;9.070;2022-07-29T03:15:31;19.30;99.90
11264;DHT22;5689;48.798;9.070;2022-07-29T03:18:00;19.20;99.90
11264;DHT22;5689;48.798;9.070;2022-07-29T03:20:28;19.10;99.90
11264;DHT22;5689;48.798;9.070;2022-07-29T03:22:56;19.10;99.90
11264;DHT22;5689;48.798;9.070;2022-07-29T03:25:24;19.10;99.90
11264;DHT22;5689;48.798;9.070;2022-07-29T03:27:53;19.00;99.90
11264;DHT22;5689;48.798;9.070;2022-07-29T03:30:22;19.10;99.90
11264;DHT22;5689;48.798;9.070;2022-07-29T03:32:53;19.10;99.90
11264;DHT22;5689;48.798;9.070;2022-07-29T03:35:21;19.00;99.90
11264;DHT22;5689;48.798;9.070;2022-07-29T03:37:49;18.80;99.90
11264;DHT22;5689;48.798;9.070;2022-07-29T03:40:21;18.80;99.90
11264;DHT22;5689;48.798;9.070;2022-07-29T03:42:51;18.80;99.90
11264;DHT22;5689;48.798;9.070;2022-07-29T03:45:21;18.80;99.90
11264;DHT22;5689;48.798;9.070;2022-07-29T03:47:56;18.80;99.90
11264;DHT22;5689;48.798;9.070;2022-07-29T03:50:26;18.80;99.90
11264;DHT22;5689;48.798;9.070;2022-07-29T03:52:54;18.80;99.90
11264;DHT22;5689;48.798;9.070;2022-07-29T03:55:23;18.80;99.90
11264;DHT22;5689;48.798;9.070;2022-07-29T03:57:52;18.80;99.90
11264;DHT22;5689;48.798;9.070;2022-07-29T04:00:22;18.80;99.90
11264;DHT22;5689;48.798;9.070;2022-07-29T04:02:52;18.80;99.90
11264;DHT22;5689;48.798;9.070;2022-07-29T04:05:20;18.70;99.90
11264;DHT22;5689;48.798;9.070;2022-07-29T04:07:48;18.60;99.90
11264;DHT22;5689;48.798;9.070;2022-07-29T04:10:17;18.50;99.90
11264;DHT22;5689;48.798;9.070;2022-07-29T04:12:45;18.30;99.90
11264;DHT22;5689;48.798;9.070;2022-07-29T04:15:13;18.10;99.90
11264;DHT22;5689;48.798;9.070;2022-07-29T04:17:41;18.10;99.90
11264;DHT22;5689;48.798;9.070;2022-07-29T04:20:14;18.10;99.90
11264;DHT22;5689;48.798;9.070;2022-07-29T04:22:42;18.10;99.90
11264;DHT22;5689;48.798;9.070;2022-07-29T04:25:10;18.10;99.90
11264;DHT22;5689;48.798;9.070;2022-07-29T04:27:38;18.10;99.90
11264;DHT22;5689;48.798;9.070;2022-07-29T04:30:26;18.30;99.90
11264;DHT22;5689;48.798;9.070;2022-07-29T04:32:55;18.50;99.90
11264;DHT22;5689;48.798;9.070;2022-07-29T04:35:24;18.60;99.90
11264;DHT22;5689;48.798;9.070;2022-07-29T04:37:52;18.70;99.90
11264;DHT22;5689;48.798;9.070;2022-07-29T04:40:20;18.90;99.90
11264;DHT22;5689;48.798;9.070;2022-07-29T04:42:48;19.00;99.90
11264;DHT22;5689;48.798;9.070;2022-07-29T04:45:17;19.00;99.90
11264;DHT22;5689;48.798;9.070;2022-07-29T04:47:45;19.00;99.90
11264;DHT22;5689;48.798;9.070;2022-07-29T04:50:13;19.20;99.90
11264;DHT22;5689;48.798;9.070;2022-07-29T04:52:42;19.40;99.90
11264;DHT22;5689;48.798;9.070;2022-07-29T04:55:10;19.60;99.90
11264;DHT22;5689;48.798;9.070;2022-07-29T04:57:39;19.60;99.90
11264;DHT22;5689;48.798;9.070;2022-07-29T05:00:08;19.70;99.90
11264;DHT22;5689;48.798;9.070;2022-07-29T05:02:36;19.80;99.90
11264;DHT22;5689;48.798;9.070;2022-07-29T05:05:05;19.70;99.90
11264;DHT22;5689;48.798;9.070;2022-07-29T05:07:33;19.70;99.90
11264;DHT22;5689;48.798;9.070;2022-07-29T05:10:03;19.80;99.90
11264;DHT22;5689;48.798;9.070;2022-07-29T05:12:32;19.90;99.90
11264;DHT22;5689;48.798;9.070;2022-07-29T05:15:00;19.70;99.90
11264;DHT22;5689;48.798;9.070;2022-07-29T05:17:28;19.80;99.90
11264;DHT22;5689;48.798;9.070;2022-07-29T05:19:56;20.00;99.90
11264;DHT22;5689;48.798;9.070;2022-07-29T05:22:25;20.30;99.90
11264;DHT22;5689;48.798;9.070;2022-07-29T05:24:53;20.60;99.90
11264;DHT22;5689;48.798;9.070;2022-07-29T05:27:22;20.70;99.90
11264;DHT22;5689;48.798;9.070;2022-07-29T05:29:52;20.80;99.90
11264;DHT22;5689;48.798;9.070;2022-07-29T05:32:20;21.00;99.90
11264;DHT22;5689;48.798;9.070;2022-07-29T05:34:48;21.10;99.90
11264;DHT22;5689;48.798;9.070;2022-07-29T05:37:18;20.80;99.90
11264;DHT22;5689;48.798;9.070;2022-07-29T05:39:46;20.70;99.90
11264;DHT22;5689;48.798;9.070;2022-07-29T05:42:15;20.90;99.90
11264;DHT22;5689;48.798;9.070;2022-07-29T05:44:44;21.10;99.90
11264;DHT22;5689;48.798;9.070;2022-07-29T05:47:14;21.20;99.90
11264;DHT22;5689;48.798;9.070;2022-07-29T05:49:42;21.20;99.90
11264;DHT22;5689;48.798;9.070;2022-07-29T05:52:10;21.10;99.90
11264;DHT22;5689;48.798;9.070;2022-07-29T05:54:39;21.20;99.90
11264;DHT22;5689;48.798;9.070;2022-07-29T05:57:07;21.40;99.90
11264;DHT22;5689;48.798;9.070;2022-07-29T05:59:37;21.60;99.90
11264;DHT22;5689;48.798;9.070;2022-07-29T06:02:07;22.20;99.90
11264;DHT22;5689;48.798;9.070;2022-07-29T06:04:35;22.40;99.90
11264;DHT22;5689;48.798;9.070;2022-07-29T06:07:03;22.70;99.90
11264;DHT22;5689;48.798;9.070;2022-07-29T06:09:31;23.40;99.90
11264;DHT22;5689;48.798;9.070;2022-07-29T06:12:02;23.60;99.90
11264;DHT22;5689;48.798;9.070;2022-07-29T06:14:30;24.10;99.90
11264;DHT22;5689;48.798;9.070;2022-07-29T06:16:59;24.10;99.90
11264;DHT22;5689;48.798;9.070;2022-07-29T06:19:28;24.40;99.90
11264;DHT22;5689;48.798;9.070;2022-07-29T06:21:56;24.80;99.90
11264;DHT22;5689;48.798;9.070;2022-07-29T06:24:24;25.00;99.90
11264;DHT22;5689;48.798;9.070;2022-07-29T06:26:52;25.00;99.90
11264;DHT22;5689;48.798;9.070;2022-07-29T06:29:20;25.30;99.90
11264;DHT22;5689;48.798;9.070;2022-07-29T06:31:48;25.40;99.90
11264;DHT22;5689;48.798;9.070;2022-07-29T06:34:16;25.80;99.90
11264;DHT22;5689;48.798;9.070;2022-07-29T06:36:47;26.10;99.90
11264;DHT22;5689;48.798;9.070;2022-07-29T06:39:16;25.50;99.90
11264;DHT22;5689;48.798;9.070;2022-07-29T06:41:47;24.50;99.90
11264;DHT22;5689;48.798;9.070;2022-07-29T06:44:16;24.40;99.90
11264;DHT22;5689;48.798;9.070;2022-07-29T06:46:44;24.40;99.90
11264;DHT22;5689;48.798;9.070;2022-07-29T06:49:13;24.30;99.90
11264;DHT22;5689;48.798;9.070;2022-07-29T06:51:41;24.30;99.90
11264;DHT22;5689;48.798;9.070;2022-07-29T06:54:11;24.70;99.90
11264;DHT22;5689;48.798;9.070;2022-07-29T06:56:39;25.20;99.90
11264;DHT22;5689;48.798;9.070;2022-07-29T06:59:09;25.70;99.90
11264;DHT22;5689;48.798;9.070;2022-07-29T07:01:39;25.90;99.90
11264;DHT22;5689;48.798;9.070;2022-07-29T07:04:09;26.70;99.90
11264;DHT22;5689;48.798;9.070;2022-07-29T07:06:37;27.20;99.90
11264;DHT22;5689;48.798;9.070;2022-07-29T07:09:05;27.50;99.90
11264;DHT22;5689;48.798;9.070;2022-07-29T07:11:37;27.00;99.90
11264;DHT22;5689;48.798;9.070;2022-07-29T07:14:09;26.50;99.90
11264;DHT22;5689;48.798;9.070;2022-07-29T07:16:37;26.20;99.90
11264;DHT22;5689;48.798;9.070;2022-07-29T07:19:05;25.90;99.90
11264;DHT22;5689;48.798;9.070;2022-07-29T07:21:33;25.40;99.90
11264;DHT22;5689;48.798;9.070;2022-07-29T07:24:02;26.50;99.90
11264;DHT22;5689;48.798;9.070;2022-07-29T07:26:30;27.50;99.90
11264;DHT22;5689;48.798;9.070;2022-07-29T07:29:00;27.10;99.90
11264;DHT22;5689;48.798;9.070;2022-07-29T07:31:28;26.20;99.90
11264;DHT22;5689;48.798;9.070;2022-07-29T07:33:56;26.30;99.90
11264;DHT22;5689;48.798;9.070;2022-07-29T07:36:24;26.10;99.90
11264;DHT22;5689;48.798;9.070;2022-07-29T07:38:52;26.80;99.90
11264;DHT22;5689;48.798;9.070;2022-07-29T07:41:21;26.70;99.90
11264;DHT22;5689;48.798;9.070;2022-07-29T07:43:49;28.50;98.10
11264;DHT22;5689;48.798;9.070;2022-07-29T07:46:18;29.00;96.40
11264;DHT22;5689;48.798;9.070;2022-07-29T07:48:46;30.30;93.90
11264;DHT22;5689;48.798;9.070;2022-07-29T07:51:14;31.30;91.10
11264;DHT22;5689;48.798;9.070;2022-07-29T07:53:42;30.50;91.70
11264;DHT22;5689;48.798;9.070;2022-07-29T07:56:11;29.80;91.60
11264;DHT22;5689;48.798;9.070;2022-07-29T07:58:39;29.20;92.30
11264;DHT22;5689;48.798;9.070;2022-07-29T08:01:07;28.70;93.10
11264;DHT22;5689;48.798;9.070;2022-07-29T08:03:37;28.80;93.50
11264;DHT22;5689;48.798;9.070;2022-07-29T08:06:05;29.70;92.20
11264;DHT22;5689;48.798;9.070;2022-07-29T08:08:34;29.10;92.60
11264;DHT22;5689;48.798;9.070;2022-07-29T08:11:02;29.70;91.50
11264;DHT22;5689;48.798;9.070;2022-07-29T08:13:34;31.30;90.00
11264;DHT22;5689;48.798;9.070;2022-07-29T08:16:02;32.30;85.70
11264;DHT22;5689;48.798;9.070;2022-07-29T08:18:40;31.50;84.90
11264;DHT22;5689;48.798;9.070;2022-07-29T08:21:09;30.30;88.10
11264;DHT22;5689;48.798;9.070;2022-07-29T08:23:37;31.60;86.00
11264;DHT22;5689;48.798;9.070;2022-07-29T08:26:06;33.20;81.20
11264;DHT22;5689;48.798;9.070;2022-07-29T08:28:37;33.30;78.70
11264;DHT22;5689;48.798;9.070;2022-07-29T08:31:05;32.50;79.20
11264;DHT22;5689;48.798;9.070;2022-07-29T08:33:33;31.70;81.30
11264;DHT22;5689;48.798;9.070;2022-07-29T08:36:04;32.00;81.50
11264;DHT22;5689;48.798;9.070;2022-07-29T08:38:33;32.70;79.50
11264;DHT22;5689;48.798;9.070;2022-07-29T08:41:01;33.00;78.40
11264;DHT22;5689;48.798;9.070;2022-07-29T08:43:29;31.60;79.50
11264;DHT22;5689;48.798;9.070;2022-07-29T08:45:57;31.30;81.50
11264;DHT22;5689;48.798;9.070;2022-07-29T08:48:25;31.60;80.60
11264;DHT22;5689;48.798;9.070;2022-07-29T08:50:55;32.10;79.20
11264;DHT22;5689;48.798;9.070;2022-07-29T08:53:26;31.30;80.90
11264;DHT22;5689;48.798;9.070;2022-07-29T08:55:55;32.50;78.30
11264;DHT22;5689;48.798;9.070;2022-07-29T08:58:23;32.40;76.80
11264;DHT22;5689;48.798;9.070;2022-07-29T09:00:55;33.10;75.70
11264;DHT22;5689;48.798;9.070;2022-07-29T09:03:25;32.80;72.90
11264;DHT22;5689;48.798;9.070;2022-07-29T09:05:55;34.20;72.60
11264;DHT22;5689;48.798;9.070;2022-07-29T09:08:25;33.00;72.70
11264;DHT22;5689;48.798;9.070;2022-07-29T09:10:54;31.70;76.20
11264;DHT22;5689;48.798;9.070;2022-07-29T09:13:22;32.40;74.60
11264;DHT22;5689;48.798;9.070;2022-07-29T09:15:50;32.70;73.50
11264;DHT22;5689;48.798;9.070;2022-07-29T09:18:33;33.40;72.40
11264;DHT22;5689;48.798;9.070;2022-07-29T09:21:03;33.20;72.00
11264;DHT22;5689;48.798;9.070;2022-07-29T09:24:05;32.40;74.70
11264;DHT22;5689;48.798;9.070;2022-07-29T09:26:36;33.70;71.30
11264;DHT22;5689;48.798;9.070;2022-07-29T09:29:09;33.90;69.80
11264;DHT22;5689;48.798;9.070;2022-07-29T09:31:38;32.30;71.60
11264;DHT22;5689;48.798;9.070;2022-07-29T09:34:07;33.00;70.30
11264;DHT22;5689;48.798;9.070;2022-07-29T09:36:39;33.90;68.60
11264;DHT22;5689;48.798;9.070;2022-07-29T09:39:09;32.50;69.90
11264;DHT22;5689;48.798;9.070;2022-07-29T09:41:45;31.50;73.90
11264;DHT22;5689;48.798;9.070;2022-07-29T09:44:13;33.80;69.70
11264;DHT22;5689;48.798;9.070;2022-07-29T09:46:53;34.30;66.80
11264;DHT22;5689;48.798;9.070;2022-07-29T09:49:22;33.60;70.90
11264;DHT22;5689;48.798;9.070;2022-07-29T09:52:00;32.60;72.10
11264;DHT22;5689;48.798;9.070;2022-07-29T09:54:29;32.00;73.60
11264;DHT22;5689;48.798;9.070;2022-07-29T09:57:22;31.80;72.60
11264;DHT22;5689;48.798;9.070;2022-07-29T09:59:57;32.50;72.70
11264;DHT22;5689;48.798;9.070;2022-07-29T10:02:30;31.40;74.60
11264;DHT22;5689;48.798;9.070;2022-07-29T10:04:59;30.40;77.30
11264;DHT22;5689;48.798;9.070;2022-07-29T10:07:43;30.10;78.60
11264;DHT22;5689;48.798;9.070;2022-07-29T10:10:23;28.90;81.30
11264;DHT22;5689;48.798;9.070;2022-07-29T10:12:53;28.20;84.70
11264;DHT22;5689;48.798;9.070;2022-07-29T10:15:24;28.30;83.30
11264;DHT22;5689;48.798;9.070;2022-07-29T10:17:53;27.90;85.00
11264;DHT22;5689;48.798;9.070;2022-07-29T10:20:22;27.90;84.30
11264;DHT22;5689;48.798;9.070;2022-07-29T10:22:52;27.60;84.40
11264;DHT22;5689;48.798;9.070;2022-07-29T10:25:22;27.40;85.50
11264;DHT22;5689;48.798;9.070;2022-07-29T10:27:50;27.00;85.50
11264;DHT22;5689;48.798;9.070;2022-07-29T10:30:21;27.00;86.40
11264;DHT22;5689;48.798;9.070;2022-07-29T10:32:58;27.00;84.50
11264;DHT22;5689;48.798;9.070;2022-07-29T10:35:41;27.00;85.40
11264;DHT22;5689;48.798;9.070;2022-07-29T10:38:37;26.60;86.50
11264;DHT22;5689;48.798;9.070;2022-07-29T10:44:19;25.90;85.20
11264;DHT22;5689;48.798;9.070;2022-07-29T10:46:48;25.70;85.10
11264;DHT22;5689;48.798;9.070;2022-07-29T10:49:18;25.80;83.90
11264;DHT22;5689;48.798;9.070;2022-07-29T10:52:14;25.50;85.40
11264;DHT22;5689;48.798;9.070;2022-07-29T10:54:49;25.40;86.80
11264;DHT22;5689;48.798;9.070;2022-07-29T10:57:21;25.50;86.90
11264;DHT22;5689;48.798;9.070;2022-07-29T11:00:25;25.20;90.00
11264;DHT22;5689;48.798;9.070;2022-07-29T11:02:53;25.10;91.50
11264;DHT22;5689;48.798;9.070;2022-07-29T11:05:23;24.90;91.80
11264;DHT22;5689;48.798;9.070;2022-07-29T11:08:16;24.70;94.10
11264;DHT22;5689;48.798;9.070;2022-07-29T11:10:47;24.00;98.10
11264;DHT22;5689;48.798;9.070;2022-07-29T11:13:47;23.40;99.40
11264;DHT22;5689;48.798;9.070;2022-07-29T11:16:19;23.10;99.90
11264;DHT22;5689;48.798;9.070;2022-07-29T11:19:20;22.90;99.90
11264;DHT22;5689;48.798;9.070;2022-07-29T11:21:48;23.10;99.90
11264;DHT22;5689;48.798;9.070;2022-07-29T11:24:20;23.50;99.90
11264;DHT22;5689;48.798;9.070;2022-07-29T11:27:14;23.80;99.90
11264;DHT22;5689;48.798;9.070;2022-07-29T11:29:51;24.00;99.90
11264;DHT22;5689;48.798;9.070;2022-07-29T11:32:22;24.10;99.90
11264;DHT22;5689;48.798;9.070;2022-07-29T11:35:12;24.10;99.90
11264;DHT22;5689;48.798;9.070;2022-07-29T11:37:41;24.40;99.90
11264;DHT22;5689;48.798;9.070;2022-07-29T11:40:16;24.50;99.90
11264;DHT22;5689;48.798;9.070;2022-07-29T11:42:47;24.80;99.90
11264;DHT22;5689;48.798;9.070;2022-07-29T11:45:21;25.70;99.90
11264;DHT22;5689;48.798;9.070;2022-07-29T11:47:53;27.00;96.80
11264;DHT22;5689;48.798;9.070;2022-07-29T11:50:33;28.10;92.80
11264;DHT22;5689;48.798;9.070;2022-07-29T11:53:03;27.40;91.60
11264;DHT22;5689;48.798;9.070;2022-07-29T11:55:38;27.00;92.00
11264;DHT22;5689;48.798;9.070;2022-07-29T11:58:06;27.10;92.60
11264;DHT22;5689;48.798;9.070;2022-07-29T12:00:36;27.30;91.60
11264;DHT22;5689;48.798;9.070;2022-07-29T12:03:08;27.70;90.30
11264;DHT22;5689;48.798;9.070;2022-07-29T12:05:40;27.50;90.50
11264;DHT22;5689;48.798;9.070;2022-07-29T12:08:14;26.80;90.60
11264;DHT22;5689;48.798;9.070;2022-07-29T12:10:43;27.50;90.70
11264;DHT22;5689;48.798;9.070;2022-07-29T12:13:12;28.50;86.20
11264;DHT22;5689;48.798;9.070;2022-07-29T12:15:42;29.20;83.00
11264;DHT22;5689;48.798;9.070;2022-07-29T12:18:15;28.00;83.70
11264;DHT22;5689;48.798;9.070;2022-07-29T12:20:44;27.10;87.20
11264;DHT22;5689;48.798;9.070;2022-07-29T12:23:13;25.90;94.50
11264;DHT22;5689;48.798;9.070;2022-07-29T12:25:43;25.20;97.70
11264;DHT22;5689;48.798;9.070;2022-07-29T12:28:13;24.90;98.70
11264;DHT22;5689;48.798;9.070;2022-07-29T12:30:44;24.80;99.00
11264;DHT22;5689;48.798;9.070;2022-07-29T12:33:17;24.70;99.90
11264;DHT22;5689;48.798;9.070;2022-07-29T12:35:47;24.40;99.90
11264;DHT22;5689;48.798;9.070;2022-07-29T12:38:24;24.40;99.90
11264;DHT22;5689;48.798;9.070;2022-07-29T12:40:53;24.30;99.90
11264;DHT22;5689;48.798;9.070;2022-07-29T12:43:22;23.70;99.90
11264;DHT22;5689;48.798;9.070;2022-07-29T12:45:52;23.50;99.90
11264;DHT22;5689;48.798;9.070;2022-07-29T12:48:34;23.40;99.90
11264;DHT22;5689;48.798;9.070;2022-07-29T12:51:03;23.40;99.90
11264;DHT22;5689;48.798;9.070;2022-07-29T12:53:33;23.50;99.90
11264;DHT22;5689;48.798;9.070;2022-07-29T12:56:01;23.40;99.90
11264;DHT22;5689;48.798;9.070;2022-07-29T12:58:35;23.30;99.90
11264;DHT22;5689;48.798;9.070;2022-07-29T13:01:06;23.50;99.90
11264;DHT22;5689;48.798;9.070;2022-07-29T13:03:50;23.50;99.90
11264;DHT22;5689;48.798;9.070;2022-07-29T13:06:33;23.40;99.90
11264;DHT22;5689;48.798;9.070;2022-07-29T13:09:03;23.30;99.90
11264;DHT22;5689;48.798;9.070;2022-07-29T13:11:32;23.30;99.90
11264;DHT22;5689;48.798;9.070;2022-07-29T13:14:01;23.20;99.90
11264;DHT22;5689;48.798;9.070;2022-07-29T13:16:29;23.10;99.90
11264;DHT22;5689;48.798;9.070;2022-07-29T13:19:19;23.20;99.90
11264;DHT22;5689;48.798;9.070;2022-07-29T13:21:59;23.10;99.90
11264;DHT22;5689;48.798;9.070;2022-07-29T13:24:27;23.00;99.90
11264;DHT22;5689;48.798;9.070;2022-07-29T13:26:55;22.90;99.90
11264;DHT22;5689;48.798;9.070;2022-07-29T13:29:24;22.90;99.90
11264;DHT22;5689;48.798;9.070;2022-07-29T13:31:55;22.80;99.90
11264;DHT22;5689;48.798;9.070;2022-07-29T13:34:25;22.80;99.90
11264;DHT22;5689;48.798;9.070;2022-07-29T13:36:53;23.00;99.90
11264;DHT22;5689;48.798;9.070;2022-07-29T13:39:21;23.50;99.90
11264;DHT22;5689;48.798;9.070;2022-07-29T13:41:49;25.20;99.90
11264;DHT22;5689;48.798;9.070;2022-07-29T13:44:17;26.10;99.90
11264;DHT22;5689;48.798;9.070;2022-07-29T13:46:45;26.20;99.90
11264;DHT22;5689;48.798;9.070;2022-07-29T13:49:13;26.60;98.60
11264;DHT22;5689;48.798;9.070;2022-07-29T13:51:42;26.80;96.80
11264;DHT22;5689;48.798;9.070;2022-07-29T13:54:10;26.60;97.00
11264;DHT22;5689;48.798;9.070;2022-07-29T13:56:38;26.50;96.30
11264;DHT22;5689;48.798;9.070;2022-07-29T13:59:07;26.40;96.10
11264;DHT22;5689;48.798;9.070;2022-07-29T14:01:35;26.20;96.60
11264;DHT22;5689;48.798;9.070;2022-07-29T14:04:03;26.30;96.20
11264;DHT22;5689;48.798;9.070;2022-07-29T14:06:31;26.80;95.60
11264;DHT22;5689;48.798;9.070;2022-07-29T14:09:03;27.50;93.00
11264;DHT22;5689;48.798;9.070;2022-07-29T14:11:32;27.80;89.20
11264;DHT22;5689;48.798;9.070;2022-07-29T14:14:01;28.10;87.50
11264;DHT22;5689;48.798;9.070;2022-07-29T14:16:29;28.40;85.10
11264;DHT22;5689;48.798;9.070;2022-07-29T14:18:57;28.20;84.00
11264;DHT22;5689;48.798;9.070;2022-07-29T14:21:25;28.00;84.30
11264;DHT22;5689;48.798;9.070;2022-07-29T14:23:53;28.10;84.30
11264;DHT22;5689;48.798;9.070;2022-07-29T14:26:22;28.00;85.60
11264;DHT22;5689;48.798;9.070;2022-07-29T14:28:50;27.70;84.90
11264;DHT22;5689;48.798;9.070;2022-07-29T14:31:18;27.90;84.80
11264;DHT22;5689;48.798;9.070;2022-07-29T14:33:46;28.10;84.50
11264;DHT22;5689;48.798;9.070;2022-07-29T14:36:15;28.40;84.50
11264;DHT22;5689;48.798;9.070;2022-07-29T14:38:43;28.40;84.60
11264;DHT22;5689;48.798;9.070;2022-07-29T14:41:11;28.30;84.30
11264;DHT22;5689;48.798;9.070;2022-07-29T14:43:41;28.10;85.40
11264;DHT22;5689;48.798;9.070;2022-07-29T14:46:09;28.20;86.50
11264;DHT22;5689;48.798;9.070;2022-07-29T14:48:37;28.30;86.10
11264;DHT22;5689;48.798;9.070;2022-07-29T14:51:05;28.20;88.80
11264;DHT22;5689;48.798;9.070;2022-07-29T14:53:33;28.00;90.60
11264;DHT22;5689;48.798;9.070;2022-07-29T14:56:01;27.90;90.10
11264;DHT22;5689;48.798;9.070;2022-07-29T14:58:42;27.90;89.90
11264;DHT22;5689;48.798;9.070;2022-07-29T15:01:10;27.90;91.00
11264;DHT22;5689;48.798;9.070;2022-07-29T15:03:38;27.70;91.60
11264;DHT22;5689;48.798;9.070;2022-07-29T15:06:06;27.70;90.50
11264;DHT22;5689;48.798;9.070;2022-07-29T15:08:34;27.60;88.10
11264;DHT22;5689;48.798;9.070;2022-07-29T15:11:02;27.70;89.00
11264;DHT22;5689;48.798;9.070;2022-07-29T15:13:30;27.80;88.20
11264;DHT22;5689;48.798;9.070;2022-07-29T15:15:59;28.00;85.60
11264;DHT22;5689;48.798;9.070;2022-07-29T15:18:27;27.90;86.30
11264;DHT22;5689;48.798;9.070;2022-07-29T15:20:55;27.60;86.40
11264;DHT22;5689;48.798;9.070;2022-07-29T15:23:23;27.50;87.30
11264;DHT22;5689;48.798;9.070;2022-07-29T15:25:51;27.50;87.20
11264;DHT22;5689;48.798;9.070;2022-07-29T15:28:19;27.40;87.60
11264;DHT22;5689;48.798;9.070;2022-07-29T15:30:47;27.10;88.90
11264;DHT22;5689;48.798;9.070;2022-07-29T15:33:17;27.20;90.80
11264;DHT22;5689;48.798;9.070;2022-07-29T15:35:45;27.10;90.10
11264;DHT22;5689;48.798;9.070;2022-07-29T15:38:13;27.00;90.10
11264;DHT22;5689;48.798;9.070;2022-07-29T15:40:41;27.00;90.60
11264;DHT22;5689;48.798;9.070;2022-07-29T15:43:10;27.00;90.40
11264;DHT22;5689;48.798;9.070;2022-07-29T15:45:39;26.80;90.80
11264;DHT22;5689;48.798;9.070;2022-07-29T15:48:08;27.00;91.40
11264;DHT22;5689;48.798;9.070;2022-07-29T15:50:38;27.30;87.60
11264;DHT22;5689;48.798;9.070;2022-07-29T15:53:06;27.40;86.20
11264;DHT22;5689;48.798;9.070;2022-07-29T15:55:34;27.50;87.40
11264;DHT22;5689;48.798;9.070;2022-07-29T15:58:02;27.40;90.00
11264;DHT22;5689;48.798;9.070;2022-07-29T16:00:30;27.50;90.60
11264;DHT22;5689;48.798;9.070;2022-07-29T16:02:59;27.50;90.20
11264;DHT22;5689;48.798;9.070;2022-07-29T16:05:27;27.40;88.20
11264;DHT22;5689;48.798;9.070;2022-07-29T16:07:56;27.50;89.60
11264;DHT22;5689;48.798;9.070;2022-07-29T16:10:26;27.30;88.80